Time;durP1;ratioP1;P1;durP2;ratioP2;P2;SDS_P1;SDS_P2;PMS_P1;PMS_P2;Temp;Humidity;BMP_temperature;BMP_pressure;BME280_temperature;BME280_humidity;BME280_pressure;Samples;Min_cycle;Max_cycle;Signal;HPM_P1;HPM_P2
2021/11/30 00:00:13;;;;;;;;;;;;;;;21.38;36.45;101132.03;7288555;19;151749;-51
2021/11/30 00:02:40;;;;;;;;;;;;;;;21.38;36.08;101134.84;7287717;19;151687;-51
2021/11/30 00:05:07;;;;;;;;;;;;;;;21.37;36.70;101150.03;7293982;19;153391;-50
2021/11/30 00:07:35;;;;;;;;;;;;;;;21.34;36.55;101144.22;7288566;19;153944;-51
2021/11/30 00:12:27;;;;;;;;;;;;;;;21.29;36.42;101136.72;7288296;19;152200;-52
2021/11/30 00:14:56;;;;;;;;;;;;;;;21.25;36.86;101130.03;7287894;19;153723;-51
2021/11/30 00:17:23;;;;;;;;;;;;;;;21.22;36.60;101128.66;7286745;19;153496;-51
2021/11/30 00:19:50;;;;;;;;;;;;;;;21.19;36.89;101134.91;7284870;19;152340;-52
2021/11/30 00:22:19;;;;;;;;;;;;;;;21.18;36.90;101138.03;7287837;19;153820;-51
2021/11/30 00:24:46;;;;;;;;;;;;;;;21.16;36.93;101137.50;7287263;19;153931;-51
2021/11/30 00:27:14;;;;;;;;;;;;;;;21.12;36.83;101142.88;7295085;19;152245;-50
2021/11/30 00:29:40;;;;;;;;;;;;;;;21.08;37.10;101126.94;7285083;19;154400;-51
2021/11/30 00:32:08;;;;;;;;;;;;;;;21.07;36.84;101128.09;7288147;19;151953;-51
2021/11/30 00:34:35;;;;;;;;;;;;;;;21.05;37.04;101124.75;7288407;19;153226;-51
2021/11/30 00:37:03;;;;;;;;;;;;;;;21.02;37.40;101117.78;7285979;19;153557;-51
2021/11/30 00:39:30;;;;;;;;;;;;;;;21.00;37.45;101119.22;7287581;19;151646;-51
2021/11/30 00:41:59;;;;;;;;;;;;;;;20.97;37.62;101122.66;7287779;19;153489;-51
2021/11/30 00:44:29;;;;;;;;;;;;;;;20.94;37.75;101121.25;7286287;19;153226;-51
2021/11/30 00:46:56;;;;;;;;;;;;;;;20.91;37.83;101124.69;7292772;19;152169;-51
2021/11/30 00:49:23;;;;;;;;;;;;;;;20.86;37.74;101127.59;7284026;19;152854;-50
2021/11/30 00:51:51;;;;;;;;;;;;;;;20.82;37.99;101132.16;7287978;19;152095;-51
2021/11/30 00:54:18;;;;;;;;;;;;;;;20.81;38.17;101119.25;7286512;19;153086;-51
2021/11/30 00:56:46;;;;;;;;;;;;;;;20.77;38.60;101127.44;7286200;19;154081;-51
2021/11/30 00:59:13;;;;;;;;;;;;;;;20.74;38.34;101132.84;7287062;19;151800;-51
2021/11/30 01:01:40;;;;;;;;;;;;;;;20.73;38.48;101129.22;7285234;19;153268;-50
2021/11/30 01:04:10;;;;;;;;;;;;;;;20.66;38.89;101134.41;7285042;19;154159;-49
2021/11/30 01:06:37;;;;;;;;;;;;;;;20.62;38.71;101136.13;7283220;19;153162;-49
2021/11/30 01:09:05;;;;;;;;;;;;;;;20.58;38.85;101135.06;7292370;19;153245;-50
2021/11/30 01:11:32;;;;;;;;;;;;;;;20.56;39.02;101137.34;7286384;19;151942;-50
2021/11/30 01:13:59;;;;;;;;;;;;;;;20.53;39.33;101137.97;7286332;19;153736;-49
2021/11/30 01:16:26;;;;;;;;;;;;;;;20.53;39.48;101132.34;7284431;19;154010;-50
2021/11/30 01:18:53;;;;;;;;;;;;;;;20.51;39.46;101131.81;7282163;19;152290;-50
2021/11/30 01:21:20;;;;;;;;;;;;;;;20.45;39.58;101141.44;7283596;19;153408;-50
2021/11/30 01:23:47;;;;;;;;;;;;;;;20.45;39.24;101146.22;7286447;19;153310;-49
2021/11/30 01:26:14;;;;;;;;;;;;;;;20.41;39.85;101144.03;7286508;19;152110;-50
2021/11/30 01:28:40;;;;;;;;;;;;;;;20.38;39.78;101149.41;7284511;19;152388;-50
2021/11/30 01:31:06;;;;;;;;;;;;;;;20.30;39.83;101142.50;7293103;19;152308;-50
2021/11/30 01:33:35;;;;;;;;;;;;;;;20.26;39.76;101132.97;7286995;19;153058;-49
2021/11/30 01:36:03;;;;;;;;;;;;;;;20.24;39.66;101128.81;7283989;19;154009;-49
2021/11/30 01:38:31;;;;;;;;;;;;;;;20.20;39.98;101125.78;7286683;19;151933;-49
2021/11/30 01:41:00;;;;;;;;;;;;;;;20.16;39.84;101138.75;7285087;19;151763;-49
2021/11/30 01:43:34;;;;;;;;;;;;;;;20.13;40.02;101136.53;7285445;19;154062;-49
2021/11/30 01:46:11;;;;;;;;;;;;;;;20.06;40.01;101124.84;7285869;19;151922;-49
2021/11/30 01:51:25;;;;;;;;;;;;;;;19.97;40.26;101119.09;7283291;19;154079;-50
2021/11/30 01:53:53;;;;;;;;;;;;;;;19.97;40.28;101126.66;7293063;19;152154;-50
2021/11/30 01:56:20;;;;;;;;;;;;;;;19.92;40.53;101112.69;7284595;19;154141;-50
2021/11/30 01:58:48;;;;;;;;;;;;;;;19.89;40.53;101114.16;7286517;19;151809;-51
2021/11/30 02:01:15;;;;;;;;;;;;;;;19.88;40.56;101106.03;7284895;19;151982;-50
2021/11/30 02:03:42;;;;;;;;;;;;;;;19.87;40.52;101104.34;7285081;19;153687;-50
2021/11/30 02:06:09;;;;;;;;;;;;;;;19.78;40.29;101106.97;7281337;19;152141;-50
2021/11/30 02:08:36;;;;;;;;;;;;;;;19.75;40.38;101098.34;7284163;19;152956;-50
2021/11/30 02:11:04;;;;;;;;;;;;;;;19.70;40.73;101093.63;7284389;19;154091;-50
2021/11/30 02:13:31;;;;;;;;;;;;;;;19.69;40.94;101086.34;7283129;19;151960;-49
2021/11/30 02:16:00;;;;;;;;;;;;;;;19.67;40.95;101079.38;7291681;19;152610;-49
2021/11/30 02:18:28;;;;;;;;;;;;;;;19.62;40.94;101082.25;7285216;19;151842;-50
2021/11/30 02:20:59;;;;;;;;;;;;;;;19.61;40.99;101072.16;7280049;19;152089;-50
2021/11/30 02:26:11;;;;;;;;;;;;;;;19.52;41.04;101067.22;7284707;19;151906;-50
2021/11/30 02:28:40;;;;;;;;;;;;;;;19.50;41.06;101063.88;7284142;19;153858;-50
2021/11/30 02:31:08;;;;;;;;;;;;;;;19.45;41.08;101077.09;7279736;19;152339;-50
2021/11/30 02:33:35;;;;;;;;;;;;;;;19.42;41.22;101070.13;7285724;19;151884;-50
2021/11/30 02:36:13;;;;;;;;;;;;;;;19.39;41.07;101067.06;7284252;19;153533;-50
2021/11/30 02:38:39;;;;;;;;;;;;;;;19.38;41.69;101073.81;7290427;19;152413;-50
2021/11/30 02:41:06;;;;;;;;;;;;;;;19.35;41.30;101071.63;7284083;19;153628;-50
2021/11/30 02:43:33;;;;;;;;;;;;;;;19.30;41.81;101068.88;7283761;19;153399;-50
2021/11/30 02:46:00;;;;;;;;;;;;;;;19.26;41.68;101063.00;7283830;19;151902;-50
2021/11/30 02:48:27;;;;;;;;;;;;;;;19.26;41.95;101063.00;7284219;19;153533;-50
2021/11/30 02:50:54;;;;;;;;;;;;;;;19.21;41.58;101060.28;7283160;19;153783;-49
2021/11/30 02:53:21;;;;;;;;;;;;;;;19.18;41.89;101057.22;7285012;19;151980;-50
2021/11/30 02:55:48;;;;;;;;;;;;;;;19.11;42.08;101057.59;7283223;19;152619;-49
2021/11/30 02:58:15;;;;;;;;;;;;;;;19.09;41.91;101057.03;7290230;19;154397;-50
2021/11/30 03:00:42;;;;;;;;;;;;;;;19.05;42.35;101065.19;7282865;19;153538;-50
2021/11/30 03:03:09;;;;;;;;;;;;;;;19.06;42.19;101064.06;7283127;19;154843;-49
2021/11/30 03:05:36;;;;;;;;;;;;;;;19.03;42.32;101069.44;7281695;19;151966;-50
2021/11/30 03:08:03;;;;;;;;;;;;;;;19.03;42.33;101061.84;7284097;19;152669;-50
2021/11/30 03:10:30;;;;;;;;;;;;;;;19.00;42.49;101073.63;7279883;19;154013;-50
2021/11/30 03:12:57;;;;;;;;;;;;;;;18.94;42.50;101068.41;7281826;19;151985;-50
2021/11/30 03:15:27;;;;;;;;;;;;;;;18.92;42.44;101076.25;7282884;19;152546;-50
2021/11/30 03:17:55;;;;;;;;;;;;;;;18.91;42.36;101077.38;7281925;19;154193;-50
2021/11/30 03:20:22;;;;;;;;;;;;;;;18.89;42.61;101079.66;7286557;19;152144;-50
2021/11/30 03:22:49;;;;;;;;;;;;;;;18.86;42.69;101071.81;7279036;19;154100;-50
2021/11/30 03:25:16;;;;;;;;;;;;;;;18.83;42.64;101067.66;7279687;19;152081;-50
2021/11/30 03:27:44;;;;;;;;;;;;;;;18.79;42.54;101062.94;7279944;19;152223;-50
2021/11/30 03:30:11;;;;;;;;;;;;;;;18.80;42.41;101067.41;7279106;19;154584;-50
2021/11/30 03:35:12;;;;;;;;;;;;;;;18.73;42.55;101070.53;7281907;19;154517;-50
2021/11/30 03:37:39;;;;;;;;;;;;;;;18.71;42.67;101061.63;7280941;19;153511;-50
2021/11/30 03:40:10;;;;;;;;;;;;;;;18.63;43.12;101065.03;7283330;19;151904;-49
2021/11/30 03:42:38;;;;;;;;;;;;;;;18.62;43.02;101054.97;7286266;19;152035;-50
2021/11/30 03:45:05;;;;;;;;;;;;;;;18.62;43.04;101063.38;7281941;19;151804;-50
2021/11/30 03:47:30;;;;;;;;;;;;;;;18.55;42.92;101058.09;7282061;19;152467;-49
2021/11/30 03:49:57;;;;;;;;;;;;;;;18.54;43.20;101061.19;7279084;19;154234;-49
2021/11/30 03:52:25;;;;;;;;;;;;;;;18.51;42.99;101061.75;7282067;19;152151;-50
2021/11/30 03:54:51;;;;;;;;;;;;;;;18.51;43.30;101061.75;7281886;19;151791;-50
2021/11/30 03:57:19;;;;;;;;;;;;;;;18.48;42.95;101057.59;7280546;19;153997;-50
2021/11/30 03:59:45;;;;;;;;;;;;;;;18.45;43.17;101055.34;7281423;19;151874;-50
2021/11/30 04:02:15;;;;;;;;;;;;;;;18.43;43.23;101059.56;7280713;19;153121;-50
2021/11/30 04:04:45;;;;;;;;;;;;;;;18.41;43.32;101050.63;7287243;19;153591;-50
2021/11/30 04:07:12;;;;;;;;;;;;;;;18.40;43.51;101057.34;7280578;19;152671;-50
2021/11/30 04:09:38;;;;;;;;;;;;;;;18.38;43.38;101052.06;7278396;19;153165;-50
2021/11/30 04:12:07;;;;;;;;;;;;;;;18.35;43.40;101055.41;7282062;19;151918;-49
2021/11/30 04:14:34;;;;;;;;;;;;;;;18.32;43.45;101047.63;7281014;19;152087;-50
2021/11/30 04:17:01;;;;;;;;;;;;;;;18.29;43.23;101051.00;7279494;19;152222;-50
2021/11/30 04:19:27;;;;;;;;;;;;;;;18.28;43.46;101046.53;7277642;19;152163;-50
2021/11/30 04:21:54;;;;;;;;;;;;;;;18.26;43.78;101045.16;7281703;19;152595;-49
2021/11/30 04:24:21;;;;;;;;;;;;;;;18.25;43.81;101046.28;7280551;19;153378;-50
2021/11/30 04:26:48;;;;;;;;;;;;;;;18.24;43.73;101042.66;7287020;19;151994;-50
2021/11/30 04:29:15;;;;;;;;;;;;;;;18.19;43.65;101032.34;7279931;19;153523;-50
2021/11/30 04:31:42;;;;;;;;;;;;;;;18.17;43.90;101037.38;7280859;19;151689;-50
2021/11/30 04:34:09;;;;;;;;;;;;;;;18.15;43.71;101033.22;7280273;19;153151;-50
2021/11/30 04:36:36;;;;;;;;;;;;;;;18.12;44.19;101034.63;7282384;19;154031;-49
2021/11/30 04:39:04;;;;;;;;;;;;;;;18.12;44.19;101033.78;7288360;19;151624;-49
2021/11/30 04:41:31;;;;;;;;;;;;;;;18.11;44.01;101034.91;7287373;19;153452;-50
2021/11/30 04:43:58;;;;;;;;;;;;;;;18.09;44.36;101026.81;7285158;19;153263;-49
2021/11/30 04:46:38;;;;;;;;;;;;;;;18.07;44.74;101026.28;7294241;19;151903;-49
2021/11/30 04:49:14;;;;;;;;;;;;;;;18.07;44.71;101025.44;7286087;19;154189;-50
2021/11/30 04:51:41;;;;;;;;;;;;;;;18.12;44.84;101020.66;7287570;19;151904;-51
2021/11/30 04:54:07;;;;;;;;;;;;;;;18.16;45.08;101027.34;7287725;19;152889;-50
2021/11/30 04:56:34;;;;;;;;;;;;;;;18.16;44.97;101018.09;7286519;19;154290;-50
2021/11/30 04:59:02;;;;;;;;;;;;;;;18.18;45.49;101021.44;7287918;19;151793;-49
2021/11/30 05:01:28;;;;;;;;;;;;;;;18.22;45.60;101014.97;7282423;19;152437;-49
2021/11/30 05:03:57;;;;;;;;;;;;;;;18.28;45.66;101026.13;7286195;19;152071;-50
2021/11/30 05:06:24;;;;;;;;;;;;;;;18.32;46.02;101030.84;7284584;19;152124;-49
2021/11/30 05:08:51;;;;;;;;;;;;;;;18.37;46.33;101029.97;7293952;19;152906;-50
2021/11/30 05:11:17;;;;;;;;;;;;;;;18.43;46.69;101028.81;7283493;19;151761;-50
2021/11/30 05:13:44;;;;;;;;;;;;;;;18.51;47.35;101025.38;7288067;19;152717;-49
2021/11/30 05:16:09;;;;;;;;;;;;;;;18.58;47.21;101028.69;7282878;19;151841;-50
2021/11/30 05:18:40;;;;;;;;;;;;;;;18.64;47.27;101008.78;7283694;19;152826;-50
2021/11/30 05:21:07;;;;;;;;;;;;;;;18.72;47.05;101012.03;7285734;19;153875;-50
2021/11/30 05:23:35;;;;;;;;;;;;;;;18.79;46.90;101016.19;7282231;19;153846;-50
2021/11/30 05:26:04;;;;;;;;;;;;;;;18.84;47.04;101015.31;7285626;19;151780;-50
2021/11/30 05:28:33;;;;;;;;;;;;;;;18.90;46.78;101009.34;7286456;19;152984;-50
2021/11/30 05:31:00;;;;;;;;;;;;;;;18.98;46.59;101005.91;7289988;19;153992;-50
2021/11/30 05:33:27;;;;;;;;;;;;;;;19.03;46.16;100997.44;7286062;19;152592;-50
2021/11/30 05:35:54;;;;;;;;;;;;;;;19.09;46.30;100987.84;7284587;19;153634;-50
2021/11/30 05:38:21;;;;;;;;;;;;;;;19.15;45.78;100994.25;7285227;19;151999;-50
2021/11/30 05:40:48;;;;;;;;;;;;;;;19.22;45.43;100986.28;7282221;19;152934;-50
2021/11/30 05:43:14;;;;;;;;;;;;;;;19.27;45.34;100993.81;7284345;19;154761;-50
2021/11/30 05:45:42;;;;;;;;;;;;;;;19.33;45.68;100984.22;7285376;19;151638;-50
2021/11/30 05:48:09;;;;;;;;;;;;;;;19.38;45.86;100992.56;7283658;19;153644;-50
2021/11/30 05:50:36;;;;;;;;;;;;;;;19.44;45.28;100999.81;7283361;19;153486;-50
2021/11/30 05:53:03;;;;;;;;;;;;;;;19.48;44.83;100995.28;7292919;19;151740;-50
2021/11/30 05:55:31;;;;;;;;;;;;;;;19.53;44.92;100996.00;7281620;19;154046;-50
2021/11/30 05:57:58;;;;;;;;;;;;;;;19.57;45.08;101003.84;7283850;19;152028;-51
2021/11/30 06:00:27;;;;;;;;;;;;;;;19.61;44.66;101002.94;7285427;19;152751;-50
2021/11/30 06:03:19;;;;;;;;;;;;;;;19.66;44.54;101008.47;7283558;19;153306;-50
2021/11/30 06:05:46;;;;;;;;;;;;;;;19.72;44.36;101007.25;7282471;19;152135;-49
2021/11/30 06:08:13;;;;;;;;;;;;;;;19.77;45.05;101007.19;7282479;19;153803;-50
2021/11/30 06:10:39;;;;;;;;;;;;;;;19.81;44.46;101004.59;7279836;19;152470;-50
2021/11/30 06:13:06;;;;;;;;;;;;;;;19.86;44.52;100996.13;7284109;19;151853;-50
2021/11/30 06:15:33;;;;;;;;;;;;;;;19.90;44.25;100995.22;7290437;19;153451;-50
2021/11/30 06:18:00;;;;;;;;;;;;;;;19.94;44.56;100998.28;7283917;19;152137;-50
2021/11/30 06:20:27;;;;;;;;;;;;;;;19.99;44.23;100992.56;7282595;19;152599;-50
2021/11/30 06:22:53;;;;;;;;;;;;;;;20.04;43.98;100991.63;7282180;19;153974;-50
2021/11/30 06:25:20;;;;;;;;;;;;;;;20.09;43.90;100988.75;7284011;19;152030;-50
2021/11/30 06:27:47;;;;;;;;;;;;;;;20.12;43.66;100993.78;7283560;19;153310;-50
2021/11/30 06:30:14;;;;;;;;;;;;;;;20.16;43.76;100973.22;7282036;19;154639;-50
2021/11/30 06:32:41;;;;;;;;;;;;;;;20.19;43.35;100983.84;7283547;19;151753;-50
2021/11/30 06:35:07;;;;;;;;;;;;;;;20.24;43.66;100982.91;7281636;19;153344;-51
2021/11/30 06:37:34;;;;;;;;;;;;;;;20.28;43.44;100982.00;7290665;19;153562;-50
2021/11/30 06:40:01;;;;;;;;;;;;;;;20.32;43.33;100985.06;7281621;19;152513;-50
2021/11/30 06:42:28;;;;;;;;;;;;;;;20.36;43.40;100983.28;7282241;19;153365;-50
2021/11/30 06:44:54;;;;;;;;;;;;;;;20.40;43.43;100982.38;7283994;19;152059;-50
2021/11/30 06:47:21;;;;;;;;;;;;;;;20.44;42.98;100984.59;7281776;19;152533;-50
2021/11/30 06:49:48;;;;;;;;;;;;;;;20.46;43.03;100983.13;7282771;19;153357;-49
2021/11/30 06:52:15;;;;;;;;;;;;;;;20.50;42.88;100978.56;7280603;19;152225;-50
2021/11/30 06:54:48;;;;;;;;;;;;;;;20.54;42.72;100984.38;7281062;19;152609;-50
2021/11/30 06:57:14;;;;;;;;;;;;;;;20.57;43.33;100995.88;7289025;19;154033;-50
2021/11/30 06:59:41;;;;;;;;;;;;;;;20.62;43.29;100986.50;7280342;19;152404;-50
2021/11/30 07:02:09;;;;;;;;;;;;;;;20.64;42.61;100979.44;7278158;19;153096;-50
2021/11/30 07:04:41;;;;;;;;;;;;;;;20.68;42.88;100988.06;7282515;19;152069;-50
2021/11/30 07:15:11;;;;;;;;;;;;;;;20.79;43.17;100993.19;7281758;19;153348;-50
2021/11/30 07:17:39;;;;;;;;;;;;;;;20.84;43.02;100995.91;7279736;19;153429;-50
2021/11/30 07:20:06;;;;;;;;;;;;;;;20.90;43.45;101007.03;7290154;19;151653;-51
2021/11/30 07:22:33;;;;;;;;;;;;;;;20.94;42.49;101019.34;7281587;19;153275;-51
2021/11/30 07:25:00;;;;;;;;;;;;;;;20.94;42.36;101002.50;7282268;19;151994;-50
2021/11/30 07:27:27;;;;;;;;;;;;;;;20.97;41.74;101008.31;7279797;19;153431;-51
2021/11/30 07:29:57;;;;;;;;;;;;;;;20.98;41.61;101004.38;7280707;19;152282;-51
2021/11/30 07:32:24;;;;;;;;;;;;;;;21.00;41.68;101020.91;7279220;19;152299;-50
2021/11/30 07:34:51;;;;;;;;;;;;;;;20.97;41.07;101013.94;7281941;19;152206;-51
2021/11/30 07:37:17;;;;;;;;;;;;;;;21.00;40.99;101026.50;7280941;19;153992;-51
2021/11/30 07:39:44;;;;;;;;;;;;;;;21.02;41.59;101027.88;7282495;19;151907;-51
2021/11/30 07:42:09;;;;;;;;;;;;;;;20.69;40.96;101029.06;7285814;19;152128;-51
2021/11/30 07:44:39;;;;;;;;;;;;;;;20.82;40.73;101020.66;7261239;19;152624;-51
2021/11/30 07:47:06;;;;;;;;;;;;;;;20.86;40.73;101032.09;7266350;19;154417;-51
2021/11/30 07:49:32;;;;;;;;;;;;;;;20.89;40.30;101031.50;7277068;19;153627;-51
2021/11/30 07:51:59;;;;;;;;;;;;;;;20.90;40.56;101026.69;7278162;19;151796;-51
2021/11/30 07:54:26;;;;;;;;;;;;;;;20.91;40.18;101031.19;7279375;19;154104;-51
2021/11/30 07:56:53;;;;;;;;;;;;;;;20.94;40.00;101033.38;7278229;19;153026;-50
2021/11/30 07:59:20;;;;;;;;;;;;;;;20.92;39.98;101027.22;7278568;19;152996;-51
2021/11/30 08:01:48;;;;;;;;;;;;;;;20.95;39.86;101035.03;7280334;19;152716;-51
2021/11/30 08:04:16;;;;;;;;;;;;;;;20.98;40.09;101037.25;7282506;19;152241;-51
2021/11/30 08:06:43;;;;;;;;;;;;;;;20.99;40.10;101036.06;7275211;19;153437;-50
2021/11/30 08:09:12;;;;;;;;;;;;;;;21.00;39.81;101034.94;7277807;19;152732;-51
2021/11/30 08:11:39;;;;;;;;;;;;;;;21.01;39.93;101034.63;7276322;19;152307;-51
2021/11/30 08:14:06;;;;;;;;;;;;;;;21.02;39.88;101032.66;7286932;19;153295;-51
2021/11/30 08:16:33;;;;;;;;;;;;;;;21.02;40.00;101038.28;7284683;19;153178;-50
2021/11/30 08:19:00;;;;;;;;;;;;;;;21.02;39.49;101050.34;7287175;19;152063;-51
2021/11/30 08:21:28;;;;;;;;;;;;;;;21.02;39.48;101052.34;7285902;19;151672;-51
2021/11/30 08:23:55;;;;;;;;;;;;;;;21.07;39.50;101046.63;7284645;19;153133;-51
2021/11/30 08:26:22;;;;;;;;;;;;;;;21.11;39.62;101040.06;7291819;19;152188;-51
2021/11/30 08:28:49;;;;;;;;;;;;;;;21.13;39.59;101051.84;7283158;19;153023;-51
2021/11/30 08:31:15;;;;;;;;;;;;;;;21.15;39.34;101045.94;7285816;19;151992;-50
2021/11/30 08:33:42;;;;;;;;;;;;;;;21.16;39.81;101045.63;7286744;19;153682;-50
2021/11/30 08:36:09;;;;;;;;;;;;;;;21.17;39.63;101049.25;7283529;19;153188;-51
2021/11/30 08:38:37;;;;;;;;;;;;;;;21.20;39.65;101051.47;7286807;19;151822;-51
2021/11/30 08:41:04;;;;;;;;;;;;;;;21.21;39.83;101050.31;7282580;19;154062;-50
2021/11/30 08:43:31;;;;;;;;;;;;;;;21.21;39.54;101044.69;7283460;19;154321;-51
2021/11/30 08:45:59;;;;;;;;;;;;;;;21.21;39.40;101031.44;7264366;19;155015;-51
2021/11/30 08:48:26;;;;;;;;;;;;;;;21.24;39.76;101032.81;7281736;19;153348;-51
2021/11/30 08:50:54;;;;;;;;;;;;;;;21.26;39.53;101027.72;7280640;19;151990;-51
2021/11/30 08:53:23;;;;;;;;;;;;;;;21.28;39.23;101029.09;7283034;19;152112;-51
2021/11/30 08:55:53;;;;;;;;;;;;;;;21.28;39.34;101029.09;7282005;19;154100;-51
2021/11/30 08:58:20;;;;;;;;;;;;;;;21.29;39.22;101027.94;7283912;19;151976;-51
2021/11/30 09:00:48;;;;;;;;;;;;;;;21.30;39.29;101032.41;7283576;19;153344;-50
2021/11/30 09:03:15;;;;;;;;;;;;;;;21.32;39.41;101020.84;7280519;19;154595;-51
2021/11/30 09:05:42;;;;;;;;;;;;;;;21.35;39.10;101017.41;7280662;19;152619;-51
2021/11/30 09:08:11;;;;;;;;;;;;;;;21.36;39.23;101021.06;7288334;19;152970;-51
2021/11/30 09:10:39;;;;;;;;;;;;;;;21.39;39.28;101021.28;7279005;19;152118;-51
2021/11/30 09:13:06;;;;;;;;;;;;;;;21.39;39.23;101014.81;7280756;19;153290;-51
2021/11/30 09:15:34;;;;;;;;;;;;;;;21.40;39.45;101005.22;7280788;19;153971;-51
2021/11/30 09:18:01;;;;;;;;;;;;;;;21.41;39.27;101018.97;7282569;19;152074;-51
2021/11/30 09:20:28;;;;;;;;;;;;;;;21.42;39.05;101017.84;7283762;19;153387;-52
2021/11/30 09:22:54;;;;;;;;;;;;;;;21.41;39.18;101027.41;7279715;19;153644;-51
2021/11/30 09:25:22;;;;;;;;;;;;;;;21.45;39.18;101014.38;7281542;19;152052;-51
2021/11/30 09:27:49;;;;;;;;;;;;;;;21.47;39.33;101017.75;7281662;19;151952;-51
2021/11/30 09:30:23;;;;;;;;;;;;;;;21.47;39.03;101016.91;7288074;19;152328;-51
2021/11/30 09:32:51;;;;;;;;;;;;;;;21.48;39.21;101010.13;7279725;19;153178;-51
2021/11/30 09:35:20;;;;;;;;;;;;;;;21.49;38.83;101000.53;7280831;19;154284;-51
2021/11/30 09:37:48;;;;;;;;;;;;;;;21.51;38.95;101015.13;7283590;19;152356;-50
2021/11/30 09:40:18;;;;;;;;;;;;;;;21.52;38.95;101014.81;7282919;19;152675;-51
2021/11/30 09:42:44;;;;;;;;;;;;;;;21.53;38.89;101008.03;7282873;19;152601;-52
2021/11/30 09:45:11;;;;;;;;;;;;;;;21.55;39.21;101013.34;7283120;19;151987;-51
2021/11/30 09:47:39;;;;;;;;;;;;;;;21.54;39.00;101006.88;7283346;19;152720;-51
2021/11/30 09:50:08;;;;;;;;;;;;;;;21.56;39.20;101010.22;7282961;19;153248;-51
2021/11/30 09:52:37;;;;;;;;;;;;;;;21.58;39.33;101012.72;7289244;19;152535;-51
2021/11/30 09:55:05;;;;;;;;;;;;;;;21.57;38.98;101008.25;7282682;19;152398;-51
2021/11/30 09:57:37;;;;;;;;;;;;;;;21.59;38.88;101018.03;7283585;19;151893;-51
2021/11/30 10:00:07;;;;;;;;;;;;;;;21.61;39.03;101009.28;7284928;19;153377;-51
2021/11/30 10:02:34;;;;;;;;;;;;;;;21.62;39.19;100997.72;7280743;19;152382;-51
2021/11/30 10:05:01;;;;;;;;;;;;;;;21.62;39.24;101003.34;7280560;19;152108;-51
2021/11/30 10:07:41;;;;;;;;;;;;;;;21.62;38.93;101008.97;7281592;19;152760;-51
2021/11/30 10:10:19;;;;;;;;;;;;;;;21.63;39.01;101002.19;7280558;19;153825;-51
2021/11/30 10:12:53;;;;;;;;;;;;;;;21.64;39.16;101005.84;7279093;19;152553;-51
2021/11/30 10:15:19;;;;;;;;;;;;;;;21.63;38.91;101001.34;7289521;19;151761;-51
2021/11/30 10:17:46;;;;;;;;;;;;;;;21.63;39.14;101006.97;7282894;19;152064;-50
2021/11/30 10:20:17;;;;;;;;;;;;;;;21.61;38.93;101010.13;7282282;19;152580;-51
2021/11/30 10:22:54;;;;;;;;;;;;;;;21.61;38.99;101006.47;7282263;19;152667;-51
2021/11/30 10:25:20;;;;;;;;;;;;;;;21.59;39.01;101003.97;7282931;19;152001;-51
2021/11/30 10:27:47;;;;;;;;;;;;;;;21.58;38.74;101007.91;7283950;19;152738;-51
2021/11/30 10:30:19;;;;;;;;;;;;;;;21.54;39.27;100994.81;7282922;19;154111;-51
2021/11/30 10:32:46;;;;;;;;;;;;;;;21.54;38.71;101004.06;7279358;19;151947;-51
2021/11/30 10:35:14;;;;;;;;;;;;;;;21.51;38.99;100987.84;7282087;19;153657;-51
2021/11/30 10:37:41;;;;;;;;;;;;;;;21.49;39.16;100995.75;7289067;19;155690;-51
2021/11/30 10:40:11;;;;;;;;;;;;;;;21.46;39.23;100987.94;7281563;19;153213;-50
2021/11/30 10:42:50;;;;;;;;;;;;;;;21.46;39.10;100973.91;7280729;19;152887;-51
2021/11/30 10:45:24;;;;;;;;;;;;;;;21.43;39.31;100977.34;7281806;19;151924;-51
2021/11/30 10:47:50;;;;;;;;;;;;;;;21.40;38.99;100974.31;7281272;19;153349;-51
2021/11/30 10:50:23;;;;;;;;;;;;;;;21.36;39.43;100970.47;7281916;19;154356;-51
2021/11/30 10:52:52;;;;;;;;;;;;;;;21.34;39.07;100967.97;7280435;19;152353;-51
2021/11/30 10:55:19;;;;;;;;;;;;;;;21.32;38.96;100956.22;7281894;19;152809;-51
2021/11/30 10:57:47;;;;;;;;;;;;;;;21.27;39.12;100954.34;7279598;19;151910;-51
2021/11/30 11:00:41;;;;;;;;;;;;;;;21.27;39.51;100956.31;7291172;19;151960;-51
2021/11/30 11:03:13;;;;;;;;;;;;;;;21.21;39.33;100949.97;7281572;19;153428;-51
2021/11/30 11:05:42;;;;;;;;;;;;;;;21.19;39.43;100954.25;7279571;19;152200;-51
2021/11/30 11:08:10;;;;;;;;;;;;;;;21.17;39.48;100943.31;7282259;19;152702;-51
2021/11/30 11:10:38;;;;;;;;;;;;;;;21.12;39.47;100934.94;7281019;19;154278;-51
2021/11/30 11:13:17;;;;;;;;;;;;;;;21.09;39.53;100931.94;7280531;19;151665;-51
2021/11/30 11:15:44;;;;;;;;;;;;;;;21.07;39.49;100939.88;7282634;19;152723;-51
2021/11/30 11:18:22;;;;;;;;;;;;;;;21.03;39.74;100936.81;7280472;19;153925;-51
2021/11/30 11:20:50;;;;;;;;;;;;;;;20.96;39.95;100921.53;7288361;19;152027;-51
2021/11/30 11:23:24;;;;;;;;;;;;;;;20.91;39.84;100913.22;7279639;19;154360;-51
2021/11/30 11:25:53;;;;;;;;;;;;;;;20.85;40.32;100927.34;7281134;19;152318;-51
2021/11/30 11:28:21;;;;;;;;;;;;;;;20.83;40.12;100907.19;7281774;19;152888;-51
2021/11/30 11:30:49;;;;;;;;;;;;;;;20.77;40.44;100908.44;7278270;19;153125;-55
2021/11/30 11:33:16;;;;;;;;;;;;;;;20.75;40.13;100912.69;7278657;19;151545;-51
2021/11/30 11:35:43;;;;;;;;;;;;;;;20.72;40.55;100908.53;7278771;19;152324;-51
2021/11/30 11:38:11;;;;;;;;;;;;;;;20.68;40.49;100912.25;7281441;19;152819;-51
2021/11/30 11:40:38;;;;;;;;;;;;;;;20.66;40.65;100915.41;7281469;19;151976;-51
2021/11/30 11:43:05;;;;;;;;;;;;;;;20.62;40.57;100913.53;7283501;19;152169;-51
2021/11/30 11:45:31;;;;;;;;;;;;;;;20.58;40.36;100909.69;7279456;19;152208;-50
2021/11/30 11:48:02;;;;;;;;;;;;;;;20.56;40.68;100918.41;7286970;19;153691;-51
2021/11/30 11:50:38;;;;;;;;;;;;;;;20.50;40.46;100905.59;7285484;19;154156;-51
2021/11/30 11:53:20;;;;;;;;;;;;;;;20.47;40.50;100909.03;7286204;19;152472;-51
2021/11/30 11:56:06;;;;;;;;;;;;;;;20.43;40.94;100896.75;7285892;19;153164;-51
2021/11/30 11:58:34;;;;;;;;;;;;;;;20.41;40.72;100891.44;7284102;19;153209;-51
2021/11/30 12:01:02;;;;;;;;;;;;;;;20.36;40.63;100894.34;7285580;19;152393;-51
2021/11/30 12:03:48;;;;;;;;;;;;;;;20.31;40.89;100900.03;7286189;19;153975;-52
2021/11/30 12:06:22;;;;;;;;;;;;;;;20.30;41.02;100892.78;7291299;19;153436;-51
2021/11/30 12:09:09;;;;;;;;;;;;;;;20.27;41.18;100886.91;7285264;19;152145;-51
2021/11/30 12:11:37;;;;;;;;;;;;;;;20.23;41.24;100889.50;7286348;19;153740;-50
2021/11/30 12:14:13;;;;;;;;;;;;;;;20.18;41.25;100885.94;7283689;19;152179;-51
2021/11/30 12:16:59;;;;;;;;;;;;;;;20.15;41.05;100875.34;7284441;19;152837;-50
2021/11/30 12:19:26;;;;;;;;;;;;;;;20.11;41.18;100891.13;7284813;19;153730;-50
2021/11/30 12:21:54;;;;;;;;;;;;;;;20.09;41.10;100887.78;7286420;19;151942;-50
2021/11/30 12:24:38;;;;;;;;;;;;;;;20.05;41.22;100873.56;7284669;19;152285;-51
2021/11/30 12:27:28;;;;;;;;;;;;;;;20.02;41.79;100862.13;7285276;19;153616;-50
2021/11/30 12:29:58;;;;;;;;;;;;;;;19.98;41.37;100859.94;7291798;19;151773;-49
2021/11/30 12:32:30;;;;;;;;;;;;;;;19.93;41.48;100857.22;7285116;19;152084;-50
2021/11/30 12:35:06;;;;;;;;;;;;;;;19.93;41.65;100859.19;7286554;19;151671;-50
2021/11/30 12:37:36;;;;;;;;;;;;;;;19.87;41.49;100858.44;7283480;19;153286;-50
2021/11/30 12:40:10;;;;;;;;;;;;;;;19.86;41.74;100862.38;7283601;19;153633;-50
2021/11/30 12:42:40;;;;;;;;;;;;;;;19.84;41.83;100861.88;7284028;19;152005;-50
2021/11/30 12:45:08;;;;;;;;;;;;;;;19.81;42.14;100858.81;7286045;19;153689;-50
2021/11/30 12:47:35;;;;;;;;;;;;;;;19.77;42.02;100864.19;7284591;19;153645;-51
2021/11/30 12:50:05;;;;;;;;;;;;;;;19.76;41.97;100862.53;7286496;19;153584;-52
2021/11/30 12:52:35;;;;;;;;;;;;;;;19.73;42.01;100863.16;7291131;19;153624;-50